DXXX/LFW METAR and TAF weather

Enter ICAO airport designator
Station Type Date Time Source
DXXX METAR 2019/07/20 04:00 UTC NOAA

DXXX 200400Z 24006KT 9999 TS SCT010 FEW020CB 25/24 Q1014 BECMG NSW


Station Type Date Time Source
DXXX Decoded METAR 2019/07/20 04:00 UTC NOAA

Lome, Togo (DXXX) 06-10N 001-15E 25M
Jul 20, 2019 - 12:00 AM EDT / 2019.07.20 0400 UTC
Wind: from the WSW (240 degrees) at 7 MPH (6 KT):0
Visibility: greater than 7 mile(s):0
Sky conditions: partly cloudy
Weather: thunder; Cumulonimbus clouds observed
Temperature: 77 F (25 C)
Dew Point: 75 F (24 C)
Relative Humidity: 94%
Pressure (altimeter): 29.94 in. Hg (1014 hPa)
ob: DXXX 200400Z 24006KT 9999 TS SCT010 FEW020CB 25/24 Q1014 BECMG NSW
cycle: 4

Station Type Date Time Source
DXXX TAF 2019/07/20 01:41 UTC NOAA

TAF
AMD DXXX 192300Z 2001/2106 26005KT 9999 SCT010
TEMPO 2001/2004 4000 TSRA BKN010 FEW020CB
BECMG 2008/2010 20010KT
TEMPO 2017/2024 TS BKN012 FEW020CB
BECMG 2022/2024 26005KT

Example: see airport list